Time;durP1;ratioP1;P1;durP2;ratioP2;P2;SDS_P1;SDS_P2;PMS_P1;PMS_P2;Temp;Humidity;BMP_temperature;BMP_pressure;BME280_temperature;BME280_humidity;BME280_pressure;Samples;Min_cycle;Max_cycle;Signal;HPM_P1;HPM_P2
2024/01/11 00:00:24;;;;;;;;;;;-5.30;99.90;;;;;;5068381;28;19916;-72
2024/01/11 00:02:49;;;;;;;;;;;-5.30;99.90;;;;;;5050496;28;19925;-72
2024/01/11 00:05:15;;;;;;;;;;;-5.30;99.90;;;;;;5045523;28;19921;-72
2024/01/11 00:07:40;;;;;;;;;;;-4.70;99.90;;;;;;5039508;28;19920;-72
2024/01/11 00:10:06;;;;;;;;;;;-5.70;99.90;;;;;;5032720;28;19921;-72
2024/01/11 00:12:32;;;;;;;;;;;-5.30;99.90;;;;;;5035674;28;19921;-72
2024/01/11 00:14:58;;;;;;;;;;;-5.70;99.90;;;;;;5045809;28;20006;-72
2024/01/11 00:17:25;;;;;;;;;;;-5.40;99.90;;;;;;5050467;28;19951;-72
2024/01/11 00:19:50;;;;;;;;;;;-5.80;99.90;;;;;;5050427;28;19920;-71
2024/01/11 00:22:16;;;;;;;;;;;-5.40;99.90;;;;;;5050346;28;20260;-72
2024/01/11 00:24:41;;;;;;;;;;;-5.40;99.90;;;;;;5051427;28;19928;-71
2024/01/11 00:27:07;;;;;;;;;;;-5.50;99.90;;;;;;5037814;28;20354;-72
2024/01/11 00:29:33;;;;;;;;;;;-5.50;99.90;;;;;;5065751;28;19950;-72
2024/01/11 00:31:59;;;;;;;;;;;-5.40;99.90;;;;;;5071474;28;19927;-71
2024/01/11 00:34:24;;;;;;;;;;;-5.50;99.90;;;;;;5055292;28;19920;-71
2024/01/11 00:36:50;;;;;;;;;;;-5.00;99.90;;;;;;5040896;28;19978;-71
2024/01/11 00:39:15;;;;;;;;;;;-5.60;99.90;;;;;;5034305;28;19920;-71
2024/01/11 00:41:41;;;;;;;;;;;-5.60;99.90;;;;;;5052223;28;19924;-72
2024/01/11 00:44:07;;;;;;;;;;;-5.80;99.90;;;;;;5043200;28;19927;-72
2024/01/11 00:46:33;;;;;;;;;;;-5.60;99.90;;;;;;5062582;28;19924;-72
2024/01/11 00:48:58;;;;;;;;;;;-3.90;99.90;;;;;;5071265;28;19920;-71
2024/01/11 00:51:24;;;;;;;;;;;-5.50;99.90;;;;;;5053346;28;19926;-71
2024/01/11 00:53:49;;;;;;;;;;;-5.60;99.90;;;;;;5053295;28;19921;-71
2024/01/11 00:56:16;;;;;;;;;;;-5.60;99.90;;;;;;5071114;28;20015;-71
2024/01/11 00:58:41;;;;;;;;;;;-5.60;99.90;;;;;;5070557;28;19947;-72
2024/01/11 01:01:08;;;;;;;;;;;-5.60;99.90;;;;;;5037469;28;19921;-71
2024/01/11 01:03:34;;;;;;;;;;;-5.60;99.90;;;;;;5040870;28;19930;-72
2024/01/11 01:06:01;;;;;;;;;;;-5.70;99.90;;;;;;5052523;28;20003;-71
2024/01/11 01:08:27;;;;;;;;;;;-5.60;99.90;;;;;;5054007;28;19924;-71
2024/01/11 01:10:52;;;;;;;;;;;-5.60;99.90;;;;;;5051060;28;19935;-71
2024/01/11 01:13:18;;;;;;;;;;;-5.60;99.90;;;;;;5051342;28;19921;-71
2024/01/11 01:15:43;;;;;;;;;;;-5.60;99.90;;;;;;5059543;28;19959;-72
2024/01/11 01:18:09;;;;;;;;;;;-5.50;99.90;;;;;;5065999;28;19920;-71
2024/01/11 01:20:34;;;;;;;;;;;-3.70;99.90;;;;;;5071560;28;19924;-71
2024/01/11 01:23:00;;;;;;;;;;;-5.70;99.90;;;;;;5070156;28;19921;-72
2024/01/11 01:25:26;;;;;;;;;;;-5.60;99.90;;;;;;5049524;28;19925;-71
2024/01/11 01:27:51;;;;;;;;;;;-5.80;99.90;;;;;;5067962;28;19924;-71
2024/01/11 01:30:17;;;;;;;;;;;-5.70;99.90;;;;;;5050937;28;19924;-72
2024/01/11 01:32:42;;;;;;;;;;;-5.60;99.90;;;;;;5069796;28;20380;-73
2024/01/11 01:35:08;;;;;;;;;;;-5.60;99.90;;;;;;5047374;28;19924;-71
2024/01/11 01:37:33;;;;;;;;;;;-5.60;99.90;;;;;;5039918;28;19928;-71
2024/01/11 01:39:59;;;;;;;;;;;-5.70;99.90;;;;;;5046998;28;19931;-71
2024/01/11 01:42:24;;;;;;;;;;;-5.70;99.90;;;;;;5044054;28;20164;-71
2024/01/11 01:44:50;;;;;;;;;;;-5.70;99.90;;;;;;5042610;28;19921;-72
2024/01/11 01:47:17;;;;;;;;;;;-5.60;99.90;;;;;;5033008;28;19944;-71
2024/01/11 01:49:42;;;;;;;;;;;-5.60;99.90;;;;;;5051375;28;19925;-72
2024/01/11 01:52:08;;;;;;;;;;;-5.70;99.90;;;;;;5045375;28;19924;-72
2024/01/11 01:54:34;;;;;;;;;;;-5.70;99.90;;;;;;5035484;28;19932;-72
2024/01/11 01:57:00;;;;;;;;;;;-5.80;99.90;;;;;;5061767;28;19921;-72
2024/01/11 01:59:25;;;;;;;;;;;-5.70;99.90;;;;;;5051037;28;19928;-72
2024/01/11 02:01:51;;;;;;;;;;;-5.80;99.90;;;;;;5052175;28;19921;-72
2024/01/11 02:04:17;;;;;;;;;;;-5.80;99.90;;;;;;5070043;28;19926;-72
2024/01/11 02:06:44;;;;;;;;;;;-5.80;99.90;;;;;;5051729;28;19928;-72
2024/01/11 02:09:10;;;;;;;;;;;-5.80;99.90;;;;;;5053032;28;20273;-72
2024/01/11 02:11:36;;;;;;;;;;;-5.80;99.90;;;;;;5063781;28;19928;-72
2024/01/11 02:14:02;;;;;;;;;;;-5.80;99.90;;;;;;5042731;28;20007;-72
2024/01/11 02:16:28;;;;;;;;;;;-5.80;99.90;;;;;;5030211;28;20008;-72
2024/01/11 02:18:53;;;;;;;;;;;-5.80;99.90;;;;;;5045446;28;20020;-72
2024/01/11 02:21:19;;;;;;;;;;;-5.70;99.90;;;;;;5040186;28;19921;-72
2024/01/11 02:23:57;;;;;;;;;;;-5.80;99.90;;;;;;5048976;28;19982;-73
2024/01/11 02:26:23;;;;;;;;;;;-5.80;99.90;;;;;;5047579;28;20003;-72
2024/01/11 02:28:48;;;;;;;;;;;-5.70;99.90;;;;;;5048698;28;19920;-73
2024/01/11 02:31:14;;;;;;;;;;;-5.70;99.90;;;;;;5045258;28;19974;-72
2024/01/11 02:33:39;;;;;;;;;;;-5.80;99.90;;;;;;5046137;28;19955;-72
2024/01/11 02:36:05;;;;;;;;;;;-5.80;99.90;;;;;;5042912;28;20037;-72
2024/01/11 02:38:32;;;;;;;;;;;-5.70;99.90;;;;;;5040669;28;20011;-72
2024/01/11 02:40:59;;;;;;;;;;;-5.80;99.90;;;;;;5036795;28;19917;-72
2024/01/11 02:43:24;;;;;;;;;;;-5.70;99.90;;;;;;5041651;28;19921;-72
2024/01/11 02:45:53;;;;;;;;;;;-5.80;99.90;;;;;;5028466;28;19917;-72
2024/01/11 02:48:19;;;;;;;;;;;-6.10;99.90;;;;;;5040040;28;19927;-72
2024/01/11 02:50:44;;;;;;;;;;;-5.80;99.90;;;;;;5046968;28;19921;-71
2024/01/11 02:53:10;;;;;;;;;;;-5.80;99.90;;;;;;5046805;28;20340;-71
2024/01/11 02:55:35;;;;;;;;;;;-5.80;99.90;;;;;;5041630;28;19921;-71
2024/01/11 02:58:01;;;;;;;;;;;-5.80;99.90;;;;;;5041977;28;19920;-71
2024/01/11 03:00:26;;;;;;;;;;;-5.90;99.90;;;;;;5047468;28;19920;-71
2024/01/11 03:02:52;;;;;;;;;;;-5.80;99.90;;;;;;5041294;28;20023;-71
2024/01/11 03:05:17;;;;;;;;;;;-5.80;99.90;;;;;;5048765;28;20434;-71
2024/01/11 03:07:43;;;;;;;;;;;-4.70;99.90;;;;;;5034696;28;19929;-71
2024/01/11 03:10:08;;;;;;;;;;;-5.80;99.90;;;;;;5035393;28;19982;-71
2024/01/11 03:12:34;;;;;;;;;;;-5.80;99.90;;;;;;5046608;28;19920;-71
2024/01/11 03:15:00;;;;;;;;;;;-5.70;99.90;;;;;;5041805;28;19974;-71
2024/01/11 03:17:25;;;;;;;;;;;-5.70;99.90;;;;;;5041096;28;20388;-71
2024/01/11 03:19:51;;;;;;;;;;;-5.70;99.90;;;;;;5045203;28;19920;-71
2024/01/11 03:22:16;;;;;;;;;;;-5.70;99.90;;;;;;5050638;28;20368;-71
2024/01/11 03:24:42;;;;;;;;;;;-5.60;99.90;;;;;;5041955;28;19925;-71
2024/01/11 03:27:07;;;;;;;;;;;-5.60;99.90;;;;;;5050376;28;20259;-72
2024/01/11 03:29:33;;;;;;;;;;;-5.60;99.90;;;;;;5067189;28;20015;-72
2024/01/11 03:31:59;;;;;;;;;;;-5.70;99.90;;;;;;5042806;28;20011;-72
2024/01/11 03:34:24;;;;;;;;;;;-5.50;99.90;;;;;;5046500;28;19921;-72
2024/01/11 03:36:50;;;;;;;;;;;-5.20;99.90;;;;;;5034063;28;19924;-72
2024/01/11 03:39:15;;;;;;;;;;;-5.40;99.90;;;;;;5057888;28;19928;-72
2024/01/11 03:41:44;;;;;;;;;;;-4.80;99.90;;;;;;5043552;28;20449;-73
2024/01/11 03:44:10;;;;;;;;;;;-5.30;99.90;;;;;;5062806;28;19970;-72
2024/01/11 03:46:35;;;;;;;;;;;-5.30;99.90;;;;;;5037804;28;19959;-72
2024/01/11 03:49:01;;;;;;;;;;;-5.30;99.90;;;;;;5067487;28;20310;-72
2024/01/11 03:51:26;;;;;;;;;;;-5.20;99.90;;;;;;5061340;28;20334;-73
2024/01/11 03:53:52;;;;;;;;;;;-5.20;99.90;;;;;;5044645;28;19920;-72
2024/01/11 03:56:17;;;;;;;;;;;-5.20;99.90;;;;;;5033129;28;19921;-72
2024/01/11 03:58:44;;;;;;;;;;;-5.10;99.90;;;;;;5067717;28;19924;-73
2024/01/11 04:01:10;;;;;;;;;;;-5.40;99.90;;;;;;5060575;28;19925;-74
2024/01/11 04:03:36;;;;;;;;;;;-5.10;99.90;;;;;;5067273;28;19927;-72
2024/01/11 04:06:01;;;;;;;;;;;-5.10;99.90;;;;;;5051513;28;19928;-72
2024/01/11 04:08:27;;;;;;;;;;;-5.00;99.90;;;;;;5047661;28;19927;-72
2024/01/11 04:10:53;;;;;;;;;;;-4.90;99.90;;;;;;5052783;28;20306;-73
2024/01/11 04:13:18;;;;;;;;;;;-4.90;99.90;;;;;;5053308;28;20758;-72
2024/01/11 04:15:44;;;;;;;;;;;-4.80;99.90;;;;;;5071810;28;19921;-72
2024/01/11 04:18:09;;;;;;;;;;;-4.50;99.90;;;;;;5070925;28;20074;-73
2024/01/11 04:20:35;;;;;;;;;;;-4.70;99.90;;;;;;5072391;28;19963;-73
2024/01/11 04:23:00;;;;;;;;;;;-4.70;99.90;;;;;;5049921;28;19920;-73
2024/01/11 04:25:26;;;;;;;;;;;-4.60;99.90;;;;;;5052859;28;19921;-73
2024/01/11 04:27:51;;;;;;;;;;;-4.60;99.90;;;;;;5044717;28;19924;-73
2024/01/11 04:30:17;;;;;;;;;;;-4.50;99.90;;;;;;5068462;28;19924;-73
2024/01/11 04:32:42;;;;;;;;;;;-4.50;99.90;;;;;;5052308;28;19924;-73
2024/01/11 04:35:08;;;;;;;;;;;-3.90;99.90;;;;;;5053767;28;20296;-74
2024/01/11 04:37:35;;;;;;;;;;;-4.40;99.90;;;;;;5051654;28;19939;-73
2024/01/11 04:40:00;;;;;;;;;;;-4.40;99.90;;;;;;5041510;28;19921;-73
2024/01/11 04:42:27;;;;;;;;;;;-4.30;99.90;;;;;;5033590;28;20376;-73
2024/01/11 04:44:52;;;;;;;;;;;-4.20;99.90;;;;;;5032916;28;19983;-73
2024/01/11 04:47:18;;;;;;;;;;;-4.20;99.90;;;;;;5043725;28;19920;-73
2024/01/11 04:49:43;;;;;;;;;;;-4.20;99.90;;;;;;5051739;28;19920;-73
2024/01/11 04:52:09;;;;;;;;;;;-4.10;99.90;;;;;;5053217;28;19963;-72
2024/01/11 04:54:34;;;;;;;;;;;-4.10;99.90;;;;;;5049597;28;19962;-73
2024/01/11 04:57:00;;;;;;;;;;;-4.00;99.90;;;;;;5038310;28;20307;-72
2024/01/11 04:59:25;;;;;;;;;;;-3.90;99.90;;;;;;5070782;28;19927;-72
2024/01/11 05:01:51;;;;;;;;;;;-3.90;99.90;;;;;;5063008;28;19917;-72
2024/01/11 05:04:16;;;;;;;;;;;-3.90;99.90;;;;;;5062973;28;20006;-72
2024/01/11 05:06:42;;;;;;;;;;;-3.80;99.90;;;;;;5054558;28;19916;-72
2024/01/11 05:09:08;;;;;;;;;;;-3.70;99.90;;;;;;5052366;28;20039;-73
2024/01/11 05:11:33;;;;;;;;;;;-3.20;99.90;;;;;;5051939;28;19925;-72
2024/01/11 05:13:59;;;;;;;;;;;-3.70;99.90;;;;;;5049249;28;19929;-72
2024/01/11 05:16:25;;;;;;;;;;;-3.70;99.90;;;;;;5049211;28;19920;-73
2024/01/11 05:18:51;;;;;;;;;;;-3.20;99.90;;;;;;5050084;28;19966;-73
2024/01/11 05:21:17;;;;;;;;;;;-3.60;99.90;;;;;;5051772;28;19955;-72
2024/01/11 05:23:43;;;;;;;;;;;-3.60;99.90;;;;;;5049376;28;20416;-72
2024/01/11 05:26:09;;;;;;;;;;;-3.60;99.90;;;;;;5042692;28;19921;-72
2024/01/11 05:28:34;;;;;;;;;;;-3.50;99.90;;;;;;5030734;28;19967;-73
2024/01/11 05:31:00;;;;;;;;;;;-3.50;99.90;;;;;;5045196;28;19968;-73
2024/01/11 05:33:25;;;;;;;;;;;-3.50;99.90;;;;;;5046054;28;19921;-72
2024/01/11 05:35:53;;;;;;;;;;;-3.40;99.90;;;;;;5042805;28;19921;-72
2024/01/11 05:38:22;;;;;;;;;;;-3.40;99.90;;;;;;5038986;28;19932;-72
2024/01/11 05:40:47;;;;;;;;;;;-3.30;99.90;;;;;;5048123;28;19920;-72
2024/01/11 05:43:13;;;;;;;;;;;-2.80;99.90;;;;;;5048089;28;19931;-73
2024/01/11 05:45:38;;;;;;;;;;;-3.30;99.90;;;;;;5048106;28;20348;-73
2024/01/11 05:48:05;;;;;;;;;;;-3.30;99.90;;;;;;5044496;28;20042;-73
2024/01/11 05:50:31;;;;;;;;;;;-3.20;99.90;;;;;;5049694;28;20280;-74
2024/01/11 05:52:56;;;;;;;;;;;-3.20;99.90;;;;;;5049093;28;19924;-71
2024/01/11 05:55:22;;;;;;;;;;;-3.20;99.90;;;;;;5049870;28;19946;-72
2024/01/11 05:57:48;;;;;;;;;;;-3.10;99.90;;;;;;5045841;28;19935;-72
2024/01/11 06:00:14;;;;;;;;;;;-3.10;99.90;;;;;;5044183;28;19928;-72
2024/01/11 06:02:40;;;;;;;;;;;-3.00;99.90;;;;;;5047227;28;19928;-72
2024/01/11 06:05:09;;;;;;;;;;;-3.00;99.90;;;;;;5046717;28;19921;-72
2024/01/11 06:07:35;;;;;;;;;;;-3.00;99.90;;;;;;5047928;28;19925;-72
2024/01/11 06:10:02;;;;;;;;;;;-2.90;99.90;;;;;;5047372;28;19921;-72
2024/01/11 06:12:28;;;;;;;;;;;-2.90;99.90;;;;;;5039048;28;19927;-72
2024/01/11 06:14:54;;;;;;;;;;;-2.90;99.90;;;;;;5059966;28;19920;-72
2024/01/11 06:17:19;;;;;;;;;;;-2.90;99.90;;;;;;5055227;28;20019;-72
2024/01/11 06:19:45;;;;;;;;;;;-2.80;99.90;;;;;;5053921;28;20006;-72
2024/01/11 06:22:10;;;;;;;;;;;-2.80;99.90;;;;;;5055007;28;20031;-72
2024/01/11 06:24:36;;;;;;;;;;;-2.80;99.90;;;;;;5059249;28;19930;-72
2024/01/11 06:27:01;;;;;;;;;;;-2.70;99.90;;;;;;5046798;28;19955;-73
2024/01/11 06:29:27;;;;;;;;;;;-2.70;99.90;;;;;;5054566;28;19963;-72
2024/01/11 06:31:53;;;;;;;;;;;-2.70;99.90;;;;;;5060807;28;20019;-72
2024/01/11 06:34:18;;;;;;;;;;;-2.70;99.90;;;;;;5051554;28;19920;-72
2024/01/11 06:36:44;;;;;;;;;;;-2.60;99.90;;;;;;5056666;28;19916;-72
2024/01/11 06:39:10;;;;;;;;;;;-2.60;99.90;;;;;;5047997;28;19978;-72
2024/01/11 06:41:35;;;;;;;;;;;-2.60;99.90;;;;;;5040204;28;19921;-71
2024/01/11 06:44:01;;;;;;;;;;;-2.50;99.90;;;;;;5047961;28;19917;-72
2024/01/11 06:46:27;;;;;;;;;;;-2.50;99.90;;;;;;5047655;28;20006;-72
2024/01/11 06:48:52;;;;;;;;;;;-2.50;99.90;;;;;;5051012;28;19920;-72
2024/01/11 06:51:21;;;;;;;;;;;-2.40;99.90;;;;;;5068637;28;19946;-72
2024/01/11 06:53:47;;;;;;;;;;;-2.40;99.90;;;;;;5050418;28;20406;-72
2024/01/11 06:56:16;;;;;;;;;;;-2.40;99.90;;;;;;5049834;28;19920;-72
2024/01/11 06:58:42;;;;;;;;;;;-2.40;99.90;;;;;;5051451;28;19921;-72
2024/01/11 07:01:08;;;;;;;;;;;-2.40;99.90;;;;;;5051177;28;19923;-72
2024/01/11 07:03:33;;;;;;;;;;;-2.40;99.90;;;;;;5038199;28;19924;-72
2024/01/11 07:05:59;;;;;;;;;;;-2.40;99.90;;;;;;5040489;28;20311;-72
2024/01/11 07:08:24;;;;;;;;;;;-2.30;99.90;;;;;;5050663;28;19927;-72
2024/01/11 07:10:50;;;;;;;;;;;-2.30;99.90;;;;;;5062064;28;20345;-72
2024/01/11 07:13:16;;;;;;;;;;;-2.30;99.90;;;;;;5050214;28;19917;-72
2024/01/11 07:15:42;;;;;;;;;;;-2.30;99.90;;;;;;5048076;28;19927;-72
2024/01/11 07:18:08;;;;;;;;;;;-2.20;99.90;;;;;;5067785;28;20346;-72
2024/01/11 07:20:33;;;;;;;;;;;-2.20;99.90;;;;;;5047224;28;19924;-73
2024/01/11 07:22:59;;;;;;;;;;;-2.20;99.90;;;;;;5044758;28;19927;-72
2024/01/11 07:25:25;;;;;;;;;;;-2.10;99.90;;;;;;5067704;28;20248;-72
2024/01/11 07:27:51;;;;;;;;;;;-2.10;99.90;;;;;;5066275;28;19924;-72
2024/01/11 07:30:18;;;;;;;;;;;-2.00;99.90;;;;;;5049575;28;20338;-72
2024/01/11 07:32:44;;;;;;;;;;;-0.30;99.90;;;;;;5051316;28;20379;-72
2024/01/11 07:35:10;;;;;;;;;;;-1.90;99.90;;;;;;5064298;28;19974;-70
2024/01/11 07:37:38;;;;;;;;;;;-1.90;99.90;;;;;;5062940;28;19964;-71
2024/01/11 07:40:04;;;;;;;;;;;-1.90;99.90;;;;;;5054719;28;19929;-72
2024/01/11 07:42:29;;;;;;;;;;;-1.80;99.90;;;;;;5051549;28;19921;-71
2024/01/11 07:44:55;;;;;;;;;;;-1.80;99.90;;;;;;5054790;28;20015;-71
2024/01/11 07:47:20;;;;;;;;;;;-1.80;99.90;;;;;;5057169;28;19960;-71
2024/01/11 07:49:46;;;;;;;;;;;-1.80;99.90;;;;;;5057198;28;20003;-71
2024/01/11 07:52:11;;;;;;;;;;;-1.80;99.90;;;;;;5055191;28;19928;-71
2024/01/11 07:54:37;;;;;;;;;;;-1.70;99.90;;;;;;5064780;28;19924;-71
2024/01/11 07:57:03;;;;;;;;;;;-1.70;99.90;;;;;;5073209;28;19932;-71
2024/01/11 07:59:38;;;;;;;;;;;-1.70;99.90;;;;;;5049900;28;19924;-71
2024/01/11 08:02:03;;;;;;;;;;;-1.70;99.90;;;;;;5055946;28;19928;-70
2024/01/11 08:04:29;;;;;;;;;;;-1.70;99.90;;;;;;5057486;28;20008;-70
2024/01/11 08:06:55;;;;;;;;;;;-1.60;99.90;;;;;;5056114;28;19985;-70
2024/01/11 08:09:20;;;;;;;;;;;-1.50;99.90;;;;;;5057089;28;20011;-70
2024/01/11 08:11:46;;;;;;;;;;;-1.50;99.90;;;;;;5071468;28;19920;-71
2024/01/11 08:14:11;;;;;;;;;;;-1.50;99.90;;;;;;5053432;28;20417;-71
2024/01/11 08:16:37;;;;;;;;;;;-1.00;99.90;;;;;;5056579;28;20354;-70
2024/01/11 08:19:03;;;;;;;;;;;-1.40;99.90;;;;;;5053210;28;19929;-71
2024/01/11 08:21:28;;;;;;;;;;;-1.40;99.90;;;;;;5056201;28;19921;-71
2024/01/11 08:23:55;;;;;;;;;;;-1.40;99.90;;;;;;5056400;28;19920;-71
2024/01/11 08:26:21;;;;;;;;;;;-1.30;99.90;;;;;;5055755;28;20342;-70
2024/01/11 08:28:47;;;;;;;;;;;-1.30;99.90;;;;;;5056563;28;20388;-71
2024/01/11 08:31:13;;;;;;;;;;;-1.30;99.90;;;;;;5055669;28;19949;-71
2024/01/11 08:33:39;;;;;;;;;;;-1.30;99.90;;;;;;5074467;28;19921;-71
2024/01/11 08:36:05;;;;;;;;;;;-1.20;99.90;;;;;;5053132;28;19925;-71
2024/01/11 08:38:30;;;;;;;;;;;-1.20;99.90;;;;;;5049771;28;19960;-71
2024/01/11 08:40:56;;;;;;;;;;;-1.20;99.90;;;;;;5053645;28;19971;-71
2024/01/11 08:43:21;;;;;;;;;;;-1.20;99.90;;;;;;5054504;28;19966;-71
2024/01/11 08:45:47;;;;;;;;;;;-1.10;99.90;;;;;;5058311;28;19921;-70
2024/01/11 08:48:13;;;;;;;;;;;-1.00;99.90;;;;;;5049216;28;20404;-70
2024/01/11 08:50:39;;;;;;;;;;;-1.00;99.90;;;;;;5050714;28;19924;-70
2024/01/11 08:53:04;;;;;;;;;;;-0.90;99.90;;;;;;5047998;28;19924;-70
2024/01/11 08:55:30;;;;;;;;;;;-0.90;99.90;;;;;;5071600;28;19927;-71
2024/01/11 08:57:56;;;;;;;;;;;-0.40;99.90;;;;;;5070679;28;20287;-72
2024/01/11 09:00:22;;;;;;;;;;;-0.80;99.90;;;;;;5052986;28;20073;-73
2024/01/11 09:02:47;;;;;;;;;;;-0.80;99.90;;;;;;5053159;28;20166;-73
2024/01/11 09:05:16;;;;;;;;;;;-0.80;99.90;;;;;;5048879;28;20000;-72
2024/01/11 09:07:42;;;;;;;;;;;-0.70;99.90;;;;;;5037999;28;19920;-72
2024/01/11 09:10:13;;;;;;;;;;;-0.60;99.90;;;;;;5051721;28;19963;-73
2024/01/11 09:12:39;;;;;;;;;;;-0.60;99.90;;;;;;5050846;28;19928;-73
2024/01/11 09:15:05;;;;;;;;;;;-0.50;99.90;;;;;;5048238;28;19928;-73
2024/01/11 09:17:30;;;;;;;;;;;-0.40;99.90;;;;;;5045906;28;19920;-73
2024/01/11 09:19:56;;;;;;;;;;;-0.40;99.90;;;;;;5070308;28;19920;-73
2024/01/11 09:22:22;;;;;;;;;;;-0.30;99.90;;;;;;5040683;28;19917;-73
2024/01/11 09:24:47;;;;;;;;;;;-0.20;99.90;;;;;;5052502;28;20315;-75
2024/01/11 09:27:13;;;;;;;;;;;-0.20;99.90;;;;;;5052819;28;19959;-74
2024/01/11 09:29:45;;;;;;;;;;;-0.10;99.90;;;;;;5051552;28;20380;-74
2024/01/11 09:32:11;;;;;;;;;;;-0.10;99.90;;;;;;5035841;28;19952;-74
2024/01/11 09:34:36;;;;;;;;;;;-0.10;99.90;;;;;;5033647;28;20014;-74
2024/01/11 09:37:03;;;;;;;;;;;0.60;99.90;;;;;;5048558;28;20049;-74
2024/01/11 09:39:29;;;;;;;;;;;0.10;99.90;;;;;;5049157;28;20019;-73
2024/01/11 09:41:59;;;;;;;;;;;0.10;99.90;;;;;;5049173;28;20059;-74
2024/01/11 09:44:25;;;;;;;;;;;0.20;99.90;;;;;;5047577;28;19975;-74
2024/01/11 09:46:51;;;;;;;;;;;0.20;99.90;;;;;;5032320;28;19920;-74
2024/01/11 09:49:19;;;;;;;;;;;0.30;99.90;;;;;;5040897;28;20391;-74
2024/01/11 09:51:45;;;;;;;;;;;0.30;99.90;;;;;;5042660;28;19921;-74
2024/01/11 09:54:10;;;;;;;;;;;0.40;99.90;;;;;;5050824;28;19921;-74
2024/01/11 09:56:36;;;;;;;;;;;0.40;99.90;;;;;;5032996;28;19974;-74
2024/01/11 09:59:05;;;;;;;;;;;0.40;99.90;;;;;;5030851;28;19921;-74
2024/01/11 10:01:31;;;;;;;;;;;1.80;99.90;;;;;;5033219;28;20021;-75
2024/01/11 10:03:57;;;;;;;;;;;0.50;99.90;;;;;;5033201;28;19963;-75
2024/01/11 10:06:23;;;;;;;;;;;0.50;99.90;;;;;;5060660;28;20379;-74
2024/01/11 10:08:49;;;;;;;;;;;0.50;99.90;;;;;;5052388;28;19920;-74
2024/01/11 10:11:14;;;;;;;;;;;0.60;99.90;;;;;;5053078;28;19927;-74
2024/01/11 10:13:40;;;;;;;;;;;0.60;99.90;;;;;;5051158;28;19927;-74
2024/01/11 10:16:07;;;;;;;;;;;0.70;99.90;;;;;;5051943;28;19920;-75
2024/01/11 10:18:33;;;;;;;;;;;0.60;99.90;;;;;;5051961;28;19924;-74
2024/01/11 10:20:58;;;;;;;;;;;0.70;99.90;;;;;;5050433;28;19927;-75
2024/01/11 10:23:24;;;;;;;;;;;0.70;99.90;;;;;;5061651;28;20374;-75
2024/01/11 10:25:49;;;;;;;;;;;0.80;99.90;;;;;;5036107;28;19943;-74
2024/01/11 10:28:15;;;;;;;;;;;0.90;99.90;;;;;;5051952;28;20380;-74
2024/01/11 10:30:41;;;;;;;;;;;0.80;99.90;;;;;;5048782;28;19928;-74
2024/01/11 10:33:07;;;;;;;;;;;0.90;99.90;;;;;;5054299;28;19924;-74
2024/01/11 10:35:33;;;;;;;;;;;0.90;99.90;;;;;;5058586;28;20000;-74
2024/01/11 10:37:59;;;;;;;;;;;1.00;99.90;;;;;;5051840;28;19920;-75
2024/01/11 10:40:25;;;;;;;;;;;1.00;99.90;;;;;;5049615;28;19920;-74
2024/01/11 10:42:51;;;;;;;;;;;1.00;99.90;;;;;;5034252;28;19931;-75
2024/01/11 10:45:17;;;;;;;;;;;1.00;99.90;;;;;;5050829;28;19921;-75
2024/01/11 10:47:47;;;;;;;;;;;1.00;99.90;;;;;;5051003;28;20339;-74
2024/01/11 10:50:14;;;;;;;;;;;1.10;99.90;;;;;;5046902;28;20376;-75
2024/01/11 10:52:44;;;;;;;;;;;1.10;99.90;;;;;;5032311;28;19921;-75
2024/01/11 10:55:10;;;;;;;;;;;1.10;99.90;;;;;;5032968;28;19967;-75
2024/01/11 10:57:35;;;;;;;;;;;1.10;99.90;;;;;;5051131;28;19924;-74
2024/01/11 11:00:03;;;;;;;;;;;1.10;99.90;;;;;;5040339;28;19928;-75
2024/01/11 11:02:29;;;;;;;;;;;1.50;99.90;;;;;;5036237;28;20507;-75
2024/01/11 11:04:55;;;;;;;;;;;2.30;99.90;;;;;;5050927;28;20276;-75
2024/01/11 11:07:22;;;;;;;;;;;1.20;99.90;;;;;;5051515;28;19921;-75
2024/01/11 11:09:49;;;;;;;;;;;1.20;99.90;;;;;;5032529;28;19920;-74
2024/01/11 11:12:16;;;;;;;;;;;1.30;99.90;;;;;;5048160;28;20062;-75
2024/01/11 11:14:43;;;;;;;;;;;1.30;99.90;;;;;;5049519;28;19927;-74
2024/01/11 11:17:09;;;;;;;;;;;1.30;99.90;;;;;;5068607;28;19971;-75
2024/01/11 11:19:36;;;;;;;;;;;1.40;99.90;;;;;;5050634;28;20343;-75
2024/01/11 11:22:04;;;;;;;;;;;1.40;99.90;;;;;;5050390;28;20391;-74
2024/01/11 11:24:29;;;;;;;;;;;1.40;99.90;;;;;;5043235;28;19928;-75
2024/01/11 11:26:57;;;;;;;;;;;1.50;99.90;;;;;;5033645;28;19916;-74
2024/01/11 11:29:22;;;;;;;;;;;1.50;99.90;;;;;;5045907;28;19939;-74
2024/01/11 11:31:53;;;;;;;;;;;1.50;99.90;;;;;;5045050;28;19921;-75
2024/01/11 11:34:39;;;;;;;;;;;1.60;99.90;;;;;;5053311;28;19927;-74
2024/01/11 11:37:05;;;;;;;;;;;1.50;99.90;;;;;;5066983;28;19924;-74
2024/01/11 11:39:31;;;;;;;;;;;1.50;99.90;;;;;;5050981;28;19921;-75
2024/01/11 11:41:58;;;;;;;;;;;1.60;99.90;;;;;;5050210;28;19942;-74
2024/01/11 11:44:24;;;;;;;;;;;1.60;99.90;;;;;;5041599;28;19929;-75
2024/01/11 11:46:50;;;;;;;;;;;1.60;99.90;;;;;;5046544;28;20363;-75
2024/01/11 11:49:15;;;;;;;;;;;1.60;99.90;;;;;;5051734;28;20055;-75
2024/01/11 11:51:43;;;;;;;;;;;1.60;99.90;;;;;;5030447;28;19921;-75
2024/01/11 11:54:14;;;;;;;;;;;1.60;99.90;;;;;;5050516;28;20257;-75
2024/01/11 11:56:40;;;;;;;;;;;1.60;99.90;;;;;;5051565;28;19927;-75
2024/01/11 11:59:06;;;;;;;;;;;1.60;99.90;;;;;;5063536;28;20227;-74
2024/01/11 12:01:32;;;;;;;;;;;1.60;99.90;;;;;;5051335;28;20480;-74
2024/01/11 12:03:57;;;;;;;;;;;1.70;99.90;;;;;;5067028;28;19921;-74
2024/01/11 12:06:24;;;;;;;;;;;1.70;99.90;;;;;;5068289;28;19924;-75
2024/01/11 12:08:52;;;;;;;;;;;1.70;99.90;;;;;;5049880;28;20368;-75
2024/01/11 12:11:18;;;;;;;;;;;1.70;99.90;;;;;;5050915;28;19970;-75
2024/01/11 12:13:44;;;;;;;;;;;1.70;99.90;;;;;;5048917;28;20354;-75
2024/01/11 12:16:10;;;;;;;;;;;1.60;99.90;;;;;;5049760;28;20024;-75
2024/01/11 12:18:35;;;;;;;;;;;1.90;99.90;;;;;;5038422;28;20330;-75
2024/01/11 12:21:01;;;;;;;;;;;1.80;99.90;;;;;;5069012;28;19974;-74
2024/01/11 12:23:29;;;;;;;;;;;1.80;99.90;;;;;;5054880;28;19920;-74
2024/01/11 12:25:56;;;;;;;;;;;1.80;99.90;;;;;;5069079;28;19966;-75
2024/01/11 12:28:22;;;;;;;;;;;2.30;99.90;;;;;;5040501;28;19921;-74
2024/01/11 12:30:47;;;;;;;;;;;2.80;99.90;;;;;;5034113;28;19924;-74
2024/01/11 12:33:13;;;;;;;;;;;1.80;99.90;;;;;;5050347;28;20249;-74
2024/01/11 12:35:39;;;;;;;;;;;1.80;99.90;;;;;;5050231;28;19920;-74
2024/01/11 12:38:15;;;;;;;;;;;1.80;99.90;;;;;;5042134;28;20411;-75
2024/01/11 12:40:41;;;;;;;;;;;1.80;99.90;;;;;;5055924;28;20331;-75
2024/01/11 12:43:09;;;;;;;;;;;1.90;99.90;;;;;;5051262;28;19947;-75
2024/01/11 12:45:35;;;;;;;;;;;1.90;99.90;;;;;;5057792;28;19924;-75
2024/01/11 12:48:01;;;;;;;;;;;1.90;99.90;;;;;;5031188;28;19946;-75
2024/01/11 12:50:27;;;;;;;;;;;2.00;99.90;;;;;;5053151;28;19920;-75
2024/01/11 12:53:08;;;;;;;;;;;2.00;99.90;;;;;;5071203;28;20357;-76
2024/01/11 12:55:34;;;;;;;;;;;2.00;99.90;;;;;;5052645;28;19925;-75
2024/01/11 12:58:07;;;;;;;;;;;2.90;99.90;;;;;;5045670;28;20453;-75
2024/01/11 13:00:32;;;;;;;;;;;2.00;99.90;;;;;;5062342;28;19924;-75
2024/01/11 13:02:58;;;;;;;;;;;2.00;99.90;;;;;;5043727;28;19935;-75
2024/01/11 13:05:24;;;;;;;;;;;2.00;99.90;;;;;;5051578;28;20353;-74
2024/01/11 13:07:50;;;;;;;;;;;2.10;99.90;;;;;;5048936;28;20467;-75
2024/01/11 13:10:16;;;;;;;;;;;2.10;99.90;;;;;;5034155;28;20003;-74
2024/01/11 13:12:42;;;;;;;;;;;3.60;99.90;;;;;;5051204;28;20315;-75
2024/01/11 13:15:08;;;;;;;;;;;2.10;99.90;;;;;;5062012;28;19924;-75
2024/01/11 13:17:33;;;;;;;;;;;2.10;99.90;;;;;;5044928;28;20427;-74
2024/01/11 13:19:59;;;;;;;;;;;2.00;99.90;;;;;;5048845;28;19956;-74
2024/01/11 13:22:25;;;;;;;;;;;2.00;99.90;;;;;;5050219;28;19970;-74
2024/01/11 13:24:50;;;;;;;;;;;2.10;99.90;;;;;;5052575;28;20346;-74
2024/01/11 13:27:16;;;;;;;;;;;2.10;99.90;;;;;;5047109;28;19963;-74
2024/01/11 13:29:41;;;;;;;;;;;2.10;99.90;;;;;;5065975;28;19921;-75
2024/01/11 13:32:07;;;;;;;;;;;2.10;99.90;;;;;;5035938;28;19920;-75
2024/01/11 13:34:32;;;;;;;;;;;2.00;99.90;;;;;;5036185;28;19932;-75
2024/01/11 13:36:59;;;;;;;;;;;2.10;99.90;;;;;;5070274;28;19920;-74
2024/01/11 13:39:25;;;;;;;;;;;2.00;99.90;;;;;;5071097;28;19950;-74
2024/01/11 13:41:50;;;;;;;;;;;2.00;99.90;;;;;;5063030;28;19927;-75
2024/01/11 13:44:16;;;;;;;;;;;2.60;99.90;;;;;;5068603;28;20384;-75
2024/01/11 13:46:43;;;;;;;;;;;2.00;99.90;;;;;;5066980;28;20131;-75
2024/01/11 13:49:09;;;;;;;;;;;2.00;99.90;;;;;;5049537;28;19931;-75
2024/01/11 13:51:34;;;;;;;;;;;2.10;99.90;;;;;;5032977;28;19920;-75
2024/01/11 13:54:00;;;;;;;;;;;2.10;99.90;;;;;;5032786;28;20010;-75
2024/01/11 13:56:26;;;;;;;;;;;2.10;99.90;;;;;;5033322;28;19963;-75
2024/01/11 13:58:52;;;;;;;;;;;2.20;99.90;;;;;;5031486;28;19917;-74
2024/01/11 14:01:17;;;;;;;;;;;2.20;99.90;;;;;;5044523;28;20011;-75
2024/01/11 14:03:43;;;;;;;;;;;2.20;99.90;;;;;;5069995;28;20291;-75
2024/01/11 14:06:08;;;;;;;;;;;2.20;99.90;;;;;;5068918;28;20387;-75
2024/01/11 14:08:34;;;;;;;;;;;2.10;99.90;;;;;;5051667;28;19926;-75
2024/01/11 14:11:00;;;;;;;;;;;2.20;99.90;;;;;;5044836;28;19921;-74
2024/01/11 14:13:25;;;;;;;;;;;2.20;99.90;;;;;;5051736;28;19935;-74